SBGL/GIG METAR and TAF weather

Enter ICAO airport designator
Station Type Date Time Source
SBGL METAR 2020/01/17 14:00 UTC NOAA

SBGL 171400Z 26002KT 4000 -RA BR FEW004 BKN013 OVC025 24/23 Q1017 RERA


Station Type Date Time Source
SBGL Decoded METAR 2020/01/17 14:00 UTC NOAA

Galeao, Brazil (SBGL) 22-49S 043-15W 42M
Jan 17, 2020 - 09:00 AM EST / 2020.01.17 1400 UTC
Wind: from the W (260 degrees) at 2 MPH (2 KT):0
Visibility: 2 mile(s):0
Sky conditions: overcast
Weather: light rain; mist
Temperature: 75 F (24 C)
Dew Point: 73 F (23 C)
Relative Humidity: 94%
Pressure (altimeter): 30.03 in. Hg (1017 hPa)
ob: SBGL 171400Z 26002KT 4000 -RA BR FEW004 BKN013 OVC025 24/23 Q1017 RERA
cycle: 14

Station Type Date Time Source
SBGL TAF 2020/01/17 12:57 UTC NOAA

TAF SBGL 170830Z 1712/1818 27010KT 7000 BKN015 TN22/1808Z TX25/1816Z
BECMG 1713/1714 20015KT
TEMPO 1714/1721 4000 RA SCT007 OVC018
BECMG 1722/1724 25010KT 9999 BKN018
BECMG 1803/1804 31005KT
BECMG 1809/1811 13007KT 7000 SCT010 BKN025
BECMG 1814/1816 9999 FEW025
RMK PGB

Example: see airport list